CZ-0079 weather

Říčany
Central Bohemian Region, Czechia

Public forecast

Using degrees Celsius for public forecast. Weather courtesy of forecast.io.

METAR (pilot weather report)

Closest report is Kbely Air Base, 9.7 nm (18.0 km) NNW. Retrieved 2019/01/17 09:00 UTC (24 minutes ago):

LKKB 170900Z 24017KT 9999 SCT030 BKN110 06/M01 Q1004 NOSIG

TAF (pilot weather forecast)

Closest forecast is Kbely Air Base, 9.7 nm (18.0 km) NNW. Retrieved 2019/01/17 06:00 UTC (3 hours ago):

TAF COR LKKB 170500Z 1706/1806 24014KT CAVOK PROB40 TEMPO 1706/1723 24018G28KT TEMPO 1707/1721 BKN035 BECMG 1800/1803 28016KT